Time;durP1;ratioP1;P1;durP2;ratioP2;P2;SDS_P1;SDS_P2;PMS_P1;PMS_P2;Temp;Humidity;BMP_temperature;BMP_pressure;BME280_temperature;BME280_humidity;BME280_pressure;Samples;Min_cycle;Max_cycle;Signal;HPM_P1;HPM_P2
2023/09/22 00:01:46;;;;;;;14.57;11.85;;;14.80;99.90;;;;;;4897380;28;93732;-32
2023/09/22 00:04:12;;;;;;;15.98;11.77;;;14.80;99.90;;;;;;4897899;28;94103;-34
2023/09/22 00:06:38;;;;;;;13.95;11.70;;;14.90;99.90;;;;;;4897781;28;95117;-32
2023/09/22 00:09:05;;;;;;;16.38;12.40;;;14.80;99.90;;;;;;4897515;28;94937;-32
2023/09/22 00:11:31;;;;;;;15.43;12.57;;;14.90;99.90;;;;;;4898020;28;93712;-31
2023/09/22 00:13:56;;;;;;;14.18;11.55;;;14.90;99.90;;;;;;4893392;28;94251;-33
2023/09/22 00:16:22;;;;;;;16.58;14.80;;;14.90;99.90;;;;;;4897411;28;94576;-35
2023/09/22 00:18:48;;;;;;;17.85;13.70;;;14.90;99.90;;;;;;4897230;28;94530;-33
2023/09/22 00:21:14;;;;;;;14.70;12.13;;;14.90;99.90;;;;;;4898152;28;94097;-36
2023/09/22 00:23:39;;;;;;;16.25;12.75;;;14.90;99.90;;;;;;4897454;28;92871;-33
2023/09/22 00:26:05;;;;;;;16.88;13.68;;;14.90;99.90;;;;;;4896829;28;96055;-32
2023/09/22 00:28:30;;;;;;;17.10;13.95;;;14.90;99.90;;;;;;4897318;28;95202;-32
2023/09/22 00:30:56;;;;;;;15.07;13.00;;;14.90;99.90;;;;;;4897758;28;93183;-30
2023/09/22 00:33:22;;;;;;;17.45;13.82;;;14.90;99.90;;;;;;4897107;28;94261;-33
2023/09/22 00:35:47;;;;;;;19.85;14.52;;;14.90;99.90;;;;;;4897133;28;95430;-31
2023/09/22 00:38:13;;;;;;;19.10;13.05;;;14.90;99.90;;;;;;4897666;28;95263;-31
2023/09/22 00:40:39;;;;;;;16.15;14.43;;;14.90;99.90;;;;;;4898042;28;94100;-31
2023/09/22 00:43:09;;;;;;;16.33;13.40;;;14.90;99.90;;;;;;4897667;28;92405;-31
2023/09/22 00:45:43;;;;;;;14.52;12.93;;;14.90;99.90;;;;;;4897683;28;94655;-33
2023/09/22 00:48:10;;;;;;;17.85;15.43;;;14.90;99.90;;;;;;4896378;28;94376;-32
2023/09/22 00:50:37;;;;;;;18.35;15.13;;;14.90;99.90;;;;;;4897507;28;95175;-33
2023/09/22 00:53:04;;;;;;;16.57;14.30;;;14.90;99.90;;;;;;4897167;28;94746;-35
2023/09/22 00:55:30;;;;;;;15.25;13.35;;;14.90;99.90;;;;;;4897102;28;94572;-35
2023/09/22 00:57:58;;;;;;;14.73;12.65;;;14.90;99.90;;;;;;4897096;28;94971;-34
2023/09/22 01:00:24;;;;;;;15.05;13.35;;;14.90;99.90;;;;;;4898526;28;92118;-33
2023/09/22 01:02:51;;;;;;;18.25;12.90;;;14.90;99.90;;;;;;4901197;28;94896;-32
2023/09/22 01:05:17;;;;;;;15.95;14.25;;;14.90;99.90;;;;;;4900597;28;93743;-31
2023/09/22 01:07:44;;;;;;;19.10;12.65;;;14.90;99.90;;;;;;4900572;28;94501;-33
2023/09/22 01:10:10;;;;;;;13.48;11.95;;;14.90;99.90;;;;;;4900791;28;94219;-30
2023/09/22 01:12:36;;;;;;;13.73;11.75;;;14.90;99.90;;;;;;4900654;28;93550;-32
2023/09/22 01:15:02;;;;;;;13.77;12.23;;;14.90;99.90;;;;;;4899402;28;97151;-33
2023/09/22 01:17:27;;;;;;;13.98;12.57;;;14.90;99.90;;;;;;4900366;28;95394;-33
2023/09/22 01:19:53;;;;;;;16.30;12.50;;;14.90;99.90;;;;;;4898898;28;94574;-31
2023/09/22 01:22:20;;;;;;;13.85;12.13;;;14.80;99.90;;;;;;4900399;28;93662;-34
2023/09/22 01:24:45;;;;;;;14.30;11.27;;;14.90;99.90;;;;;;4899946;28;94819;-31
2023/09/22 01:27:11;;;;;;;17.55;13.65;;;14.80;99.90;;;;;;4900064;28;94214;-35
2023/09/22 01:29:37;;;;;;;14.07;11.60;;;14.90;99.90;;;;;;4899747;28;93551;-34
2023/09/22 01:32:03;;;;;;;13.68;11.85;;;14.80;99.90;;;;;;4900079;28;94533;-34
2023/09/22 01:34:29;;;;;;;14.13;12.32;;;14.80;99.90;;;;;;4899696;28;95170;-34
2023/09/22 01:36:55;;;;;;;14.35;11.70;;;14.80;99.90;;;;;;4899612;28;94862;-34
2023/09/22 01:39:22;;;;;;;14.90;12.98;;;14.80;99.90;;;;;;4899383;28;93749;-34
2023/09/22 01:41:48;;;;;;;17.40;13.60;;;14.80;99.90;;;;;;4900594;28;93013;-32
2023/09/22 01:44:13;;;;;;;12.93;11.38;;;14.80;99.90;;;;;;4899628;28;94306;-32
2023/09/22 01:46:39;;;;;;;14.73;11.75;;;14.70;99.90;;;;;;4899892;28;95267;-34
2023/09/22 01:49:04;;;;;;;20.13;13.00;;;14.80;99.90;;;;;;4900113;28;93276;-32
2023/09/22 01:51:30;;;;;;;14.50;11.70;;;14.80;99.90;;;;;;4899677;28;93126;-32
2023/09/22 01:53:56;;;;;;;19.77;14.65;;;14.70;99.90;;;;;;4899890;28;95154;-34
2023/09/22 01:56:22;;;;;;;16.48;13.25;;;14.80;99.90;;;;;;4899710;28;95100;-34
2023/09/22 01:58:51;;;;;;;14.23;12.15;;;14.70;99.90;;;;;;4900692;28;94296;-34
2023/09/22 02:01:17;;;;;;;15.38;13.65;;;14.70;99.90;;;;;;4899999;28;94166;-31
2023/09/22 02:03:43;;;;;;;15.55;13.23;;;14.70;99.90;;;;;;4899150;28;95354;-33
2023/09/22 02:06:08;;;;;;;14.82;13.13;;;14.70;99.90;;;;;;4897877;28;96590;-32
2023/09/22 02:08:34;;;;;;;15.85;13.77;;;14.70;99.90;;;;;;4899389;28;92181;-36
2023/09/22 02:10:59;;;;;;;17.00;14.43;;;14.70;99.90;;;;;;4898149;28;94199;-33
2023/09/22 02:13:25;;;;;;;15.25;13.18;;;14.70;99.90;;;;;;4899664;28;94798;-33
2023/09/22 02:15:52;;;;;;;17.90;14.50;;;14.70;99.90;;;;;;4899425;28;94040;-35
2023/09/22 02:18:18;;;;;;;15.02;13.45;;;14.70;99.90;;;;;;4899666;28;93826;-35
2023/09/22 02:20:43;;;;;;;17.33;14.80;;;14.70;99.90;;;;;;4899940;28;91711;-34
2023/09/22 02:23:09;;;;;;;17.10;14.85;;;14.70;99.90;;;;;;4899353;28;94500;-36
2023/09/22 02:25:35;;;;;;;16.88;14.73;;;14.70;99.90;;;;;;4898851;28;94690;-35
2023/09/22 02:28:01;;;;;;;17.92;15.57;;;14.70;99.90;;;;;;4899511;28;95649;-30
2023/09/22 02:30:27;;;;;;;16.30;14.23;;;14.70;99.90;;;;;;4899310;28;93338;-33
2023/09/22 02:32:54;;;;;;;20.05;15.07;;;14.70;99.90;;;;;;4898715;28;95323;-34
2023/09/22 02:35:21;;;;;;;17.40;15.35;;;14.60;99.90;;;;;;4899219;28;94028;-35
2023/09/22 02:37:47;;;;;;;19.33;16.25;;;14.60;99.90;;;;;;4899358;28;93534;-33
2023/09/22 02:40:16;;;;;;;18.42;15.80;;;14.60;99.90;;;;;;4898979;28;95765;-34
2023/09/22 02:42:41;;;;;;;;;;;14.60;99.90;;;;;;4899190;28;94766;-31
2023/09/22 02:45:09;;;;;;;19.90;16.45;;;14.60;99.90;;;;;;4900017;28;93597;-32
2023/09/22 02:47:36;;;;;;;18.05;14.68;;;14.60;99.90;;;;;;4899818;28;94551;-33
2023/09/22 02:50:02;;;;;;;20.25;15.68;;;14.60;99.90;;;;;;4898902;28;94525;-33
2023/09/22 02:52:28;;;;;;;19.17;15.70;;;14.50;99.90;;;;;;4898707;28;94178;-33
2023/09/22 02:54:54;;;;;;;22.17;16.48;;;14.60;99.90;;;;;;4898433;28;95262;-35
2023/09/22 02:57:20;;;;;;;29.85;17.40;;;14.50;99.90;;;;;;4899634;28;92683;-35
2023/09/22 02:59:46;;;;;;;18.20;15.48;;;14.60;99.90;;;;;;4899131;28;93476;-36
2023/09/22 03:02:12;;;;;;;21.30;15.57;;;14.50;99.90;;;;;;4899011;28;95789;-30
2023/09/22 03:04:40;;;;;;;17.98;15.65;;;14.50;99.90;;;;;;4897651;28;94390;-33
2023/09/22 03:07:06;;;;;;;18.48;15.32;;;14.50;99.90;;;;;;4899483;28;93380;-31
2023/09/22 03:09:31;;;;;;;23.30;16.60;;;14.50;99.90;;;;;;4898966;28;93185;-32
2023/09/22 03:11:57;;;;;;;19.55;16.48;;;14.50;99.90;;;;;;4898705;28;94672;-31
2023/09/22 03:14:22;;;;;;;20.38;16.00;;;14.50;99.90;;;;;;4898472;28;94823;-35
2023/09/22 03:16:48;;;;;;;20.83;17.00;;;14.50;99.90;;;;;;4898561;28;94941;-30
2023/09/22 03:19:14;;;;;;;18.80;16.17;;;14.50;99.90;;;;;;4898412;28;92884;-35
2023/09/22 03:21:39;;;;;;;20.52;15.07;;;14.50;99.90;;;;;;4898274;28;95277;-33
2023/09/22 03:24:06;;;;;;;22.70;17.42;;;14.50;99.90;;;;;;4896862;28;94756;-35
2023/09/22 03:26:31;;;;;;;22.85;18.60;;;14.50;99.90;;;;;;4898179;28;94661;-33
2023/09/22 03:28:57;;;;;;;23.95;19.35;;;14.50;99.90;;;;;;4898525;28;92666;-35
2023/09/22 03:31:23;;;;;;;22.55;17.75;;;14.50;99.90;;;;;;4897735;28;94901;-33
2023/09/22 03:33:49;;;;;;;21.20;16.65;;;14.50;99.90;;;;;;4893085;28;94016;-32
2023/09/22 03:36:15;;;;;;;21.27;18.20;;;14.50;99.90;;;;;;4898108;28;92690;-34
2023/09/22 03:38:45;;;;;;;26.08;18.95;;;14.50;99.90;;;;;;4898978;28;94431;-31
2023/09/22 03:41:11;;;;;;;24.58;18.10;;;14.50;99.90;;;;;;4897695;28;96374;-32
2023/09/22 03:43:36;;;;;;;24.25;18.30;;;14.50;99.90;;;;;;4898028;28;95681;-35
2023/09/22 03:46:03;;;;;;;22.90;18.10;;;14.50;99.90;;;;;;4898651;28;92569;-34
2023/09/22 03:48:28;;;;;;;23.45;18.52;;;14.50;99.90;;;;;;4898369;28;93676;-37
2023/09/22 03:50:54;;;;;;;19.02;16.13;;;14.40;99.90;;;;;;4897594;28;94753;-31
2023/09/22 03:53:20;;;;;;;19.33;15.88;;;14.40;99.90;;;;;;4897945;28;94346;-33
2023/09/22 03:55:46;;;;;;;19.42;16.73;;;14.40;99.90;;;;;;4898479;28;93560;-33
2023/09/22 03:58:12;;;;;;;20.48;16.55;;;14.40;99.90;;;;;;4898007;28;91629;-33
2023/09/22 04:00:37;;;;;;;20.05;14.40;;;14.30;99.90;;;;;;4898451;28;94237;-35
2023/09/22 04:03:07;;;;;;;17.98;13.95;;;14.30;99.90;;;;;;4897073;28;94550;-34
2023/09/22 04:05:33;;;;;;;16.23;14.05;;;14.20;99.90;;;;;;4896911;28;95274;-33
2023/09/22 04:08:00;;;;;;;16.05;13.13;;;14.20;99.90;;;;;;4897380;28;93593;-33
2023/09/22 04:10:26;;;;;;;18.10;12.73;;;14.20;99.90;;;;;;4898394;28;93469;-33
2023/09/22 04:12:51;;;;;;;17.52;13.90;;;14.20;99.90;;;;;;4897532;28;94565;-34
2023/09/22 04:15:17;;;;;;;18.42;14.27;;;14.20;99.90;;;;;;4898393;28;93430;-32
2023/09/22 04:17:45;;;;;;;20.50;14.10;;;14.20;99.90;;;;;;4897749;28;93069;-31
2023/09/22 04:20:12;;;;;;;23.33;14.63;;;14.20;99.90;;;;;;4897892;28;94886;-32
2023/09/22 04:22:38;;;;;;;17.13;13.00;;;14.20;99.90;;;;;;4897649;28;94895;-31
2023/09/22 04:25:10;;;;;;;19.05;14.30;;;14.20;99.90;;;;;;4897816;28;92187;-35
2023/09/22 04:27:42;;;;;;;21.35;15.38;;;14.20;99.90;;;;;;4897885;28;94582;-33
2023/09/22 04:30:15;;;;;;;21.80;14.63;;;14.20;99.90;;;;;;4897161;28;95707;-36
2023/09/22 04:32:44;;;;;;;20.20;14.45;;;14.10;99.90;;;;;;4897068;28;95429;-35
2023/09/22 04:35:10;;;;;;;22.23;15.35;;;14.10;99.90;;;;;;4896550;28;92222;-33
2023/09/22 04:37:36;;;;;;;27.80;17.98;;;14.10;99.90;;;;;;4900505;28;92995;-32
2023/09/22 04:40:23;;;;;;;20.73;15.68;;;14.10;99.90;;;;;;4899301;28;95535;-32
2023/09/22 04:42:53;;;;;;;27.00;18.02;;;14.10;99.90;;;;;;4900048;28;93919;-36
2023/09/22 04:45:19;;;;;;;24.02;17.83;;;14.10;99.90;;;;;;4900883;28;92917;-31
2023/09/22 04:47:51;;;;;;;26.35;19.42;;;14.00;99.90;;;;;;4899901;28;93841;-31
2023/09/22 04:50:18;;;;;;;27.92;20.02;;;13.90;99.90;;;;;;4900929;28;95086;-33
2023/09/22 04:52:45;;;;;;;30.95;19.30;;;13.90;99.90;;;;;;4900599;28;94402;-34
2023/09/22 04:55:11;;;;;;;23.63;19.13;;;13.90;99.90;;;;;;4900396;28;93569;-30
2023/09/22 04:57:37;;;;;;;22.88;17.80;;;13.90;99.90;;;;;;4901116;28;92084;-35
2023/09/22 05:00:09;;;;;;;28.88;22.63;;;13.90;99.90;;;;;;4900601;28;95378;-33
2023/09/22 05:02:35;;;;;;;29.35;23.10;;;13.80;99.90;;;;;;4900457;28;95070;-32
2023/09/22 05:05:01;;;;;;;31.60;22.13;;;13.80;99.90;;;;;;4900923;28;93994;-34
2023/09/22 05:07:28;;;;;;;28.65;20.73;;;13.80;99.90;;;;;;4901042;28;93697;-33
2023/09/22 05:09:53;;;;;;;26.80;20.98;;;13.70;99.90;;;;;;4888673;28;95098;-35
2023/09/22 05:12:19;;;;;;;31.73;21.90;;;13.70;99.90;;;;;;4901394;28;93891;-32
2023/09/22 05:14:45;;;;;;;30.42;23.33;;;13.70;99.90;;;;;;4900807;28;94021;-32
2023/09/22 05:17:11;;;;;;;27.67;21.83;;;13.60;99.90;;;;;;4900335;28;94899;-34
2023/09/22 05:19:37;;;;;;;30.58;24.23;;;13.60;99.90;;;;;;4900103;28;95491;-33
2023/09/22 05:22:03;;;;;;;31.30;24.10;;;13.60;99.90;;;;;;4900367;28;95534;-33
2023/09/22 05:24:29;;;;;;;32.75;22.58;;;13.60;99.90;;;;;;4900783;28;92971;-36
2023/09/22 05:26:54;;;;;;;30.98;23.65;;;13.60;99.90;;;;;;4900404;28;93667;-36
2023/09/22 05:29:20;;;;;;;28.42;21.30;;;13.60;99.90;;;;;;4899441;28;95312;-32
2023/09/22 05:31:45;;;;;;;31.65;23.73;;;13.50;99.90;;;;;;4899872;28;94590;-35
2023/09/22 05:34:11;;;;;;;26.75;21.55;;;13.50;99.90;;;;;;4960879;22;94097;-34
2023/09/22 05:36:37;;;;;;;31.30;23.40;;;13.50;99.90;;;;;;4978783;28;93565;-31
2023/09/22 05:39:08;;;;;;;34.17;25.88;;;13.40;99.90;;;;;;4971297;28;94247;-32
2023/09/22 05:41:34;;;;;;;31.90;25.23;;;13.30;99.90;;;;;;4978277;28;94287;-35
2023/09/22 05:44:00;;;;;;;35.55;23.77;;;13.40;99.90;;;;;;4976775;28;94029;-32
2023/09/22 05:46:26;;;;;;;32.70;22.83;;;13.40;99.90;;;;;;4978349;28;94512;-32
2023/09/22 05:48:52;;;;;;;31.85;22.58;;;13.40;99.90;;;;;;4977595;28;94265;-38
2023/09/22 05:51:19;;;;;;;31.77;24.90;;;13.40;99.90;;;;;;4978100;28;94376;-33
2023/09/22 05:53:44;;;;;;;32.72;23.77;;;13.40;99.90;;;;;;4977964;28;92760;-34
2023/09/22 05:56:11;;;;;;;33.25;23.88;;;13.40;99.90;;;;;;4977893;28;93070;-36
2023/09/22 05:58:38;;;;;;;29.92;24.17;;;13.40;99.90;;;;;;4970730;28;94398;-33
2023/09/22 06:01:11;;;;;;;35.92;23.42;;;13.40;99.90;;;;;;4978046;28;94418;-34
2023/09/22 06:03:38;;;;;;;28.92;22.30;;;13.30;99.90;;;;;;4978503;28;94717;-31
2023/09/22 06:06:15;;;;;;;29.67;22.98;;;13.40;99.90;;;;;;4970976;28;94695;-33
2023/09/22 06:08:43;;;;;;;35.60;23.20;;;13.50;99.90;;;;;;4955253;28;95298;-31
2023/09/22 06:11:10;;;;;;;28.48;21.55;;;13.40;99.90;;;;;;4958719;28;95068;-36
2023/09/22 06:13:36;;;;;;;27.95;19.80;;;13.40;99.90;;;;;;4975397;28;92943;-32
2023/09/22 06:16:04;;;;;;;28.13;19.42;;;13.50;99.90;;;;;;4975759;28;93782;-37
2023/09/22 06:18:30;;;;;;;27.58;18.10;;;13.50;99.90;;;;;;4975287;28;95057;-34
2023/09/22 06:21:00;;;;;;;27.45;18.23;;;13.40;99.90;;;;;;4974299;28;94627;-35
2023/09/22 06:23:27;;;;;;;27.45;19.48;;;13.50;99.90;;;;;;4975883;28;93247;-34
2023/09/22 06:25:57;;;;;;;22.83;17.63;;;13.50;99.90;;;;;;4970632;28;93380;-34
2023/09/22 06:28:22;;;;;;;23.70;17.83;;;13.50;99.90;;;;;;4964215;28;94811;-34
2023/09/22 06:30:50;;;;;;;21.98;17.35;;;13.40;99.90;;;;;;4973216;28;94271;-37
2023/09/22 06:33:16;;;;;;;20.75;15.95;;;13.50;99.90;;;;;;4974517;28;95085;-34
2023/09/22 06:35:43;;;;;;;24.77;15.80;;;13.50;99.90;;;;;;4973511;28;94199;-34
2023/09/22 06:38:10;;;;;;;17.83;14.63;;;13.50;99.90;;;;;;4975871;28;94427;-37
2023/09/22 06:40:37;;;;;;;22.52;15.15;;;13.50;99.90;;;;;;4974818;28;94535;-34
2023/09/22 06:43:04;;;;;;;22.08;14.88;;;13.60;99.90;;;;;;4974840;28;94496;-34
2023/09/22 06:45:33;;;;;;;21.67;14.43;;;13.60;99.90;;;;;;4974978;28;93728;-34
2023/09/22 06:47:59;;;;;;;20.25;15.15;;;13.60;99.90;;;;;;4975354;28;94846;-35
2023/09/22 06:50:29;;;;;;;18.98;13.82;;;13.70;99.90;;;;;;4974704;28;94570;-35
2023/09/22 06:52:54;;;;;;;18.35;14.07;;;13.70;99.90;;;;;;4975316;28;93805;-37
2023/09/22 06:55:20;;;;;;;19.42;14.73;;;13.70;99.90;;;;;;4974518;28;92949;-34
2023/09/22 06:57:46;;;;;;;20.65;14.73;;;13.70;99.90;;;;;;4972938;28;96196;-35
2023/09/22 07:00:16;;;;;;;16.55;12.68;;;13.70;99.90;;;;;;4974049;28;95320;-37
2023/09/22 07:02:47;;;;;;;19.33;13.73;;;13.80;99.90;;;;;;4960668;28;93567;-35
2023/09/22 07:05:16;;;;;;;17.73;13.43;;;13.80;99.90;;;;;;4974133;28;92693;-34
2023/09/22 07:07:42;;;;;;;16.27;13.30;;;13.80;99.90;;;;;;4975102;28;94866;-37
2023/09/22 07:10:11;;;;;;;20.65;13.65;;;13.80;99.90;;;;;;4964029;28;94556;-38
2023/09/22 07:12:41;;;;;;;14.48;10.80;;;13.80;99.90;;;;;;4970898;28;93503;-35
2023/09/22 07:15:07;;;;;;;16.50;11.77;;;13.90;99.90;;;;;;4975189;28;93592;-38
2023/09/22 07:17:34;;;;;;;17.25;12.52;;;13.90;99.90;;;;;;4973515;28;94449;-32
2023/09/22 07:20:01;;;;;;;18.02;12.38;;;14.00;99.90;;;;;;4960023;28;94033;-38
2023/09/22 07:22:30;;;;;;;13.90;11.45;;;14.00;99.90;;;;;;4971444;28;95600;-33
2023/09/22 07:24:56;;;;;;;16.98;11.15;;;14.00;99.90;;;;;;4973252;28;92541;-33
2023/09/22 07:27:23;;;;;;;17.02;11.98;;;14.00;99.90;;;;;;4972046;28;94534;-33
2023/09/22 07:29:51;;;;;;;16.80;13.45;;;14.10;99.90;;;;;;4973524;28;94457;-34
2023/09/22 07:32:18;;;;;;;14.00;11.13;;;14.10;99.90;;;;;;4974020;28;94376;-34
2023/09/22 07:34:43;;;;;;;16.70;11.50;;;14.10;99.90;;;;;;4963682;28;92992;-37
2023/09/22 07:37:11;;;;;;;13.05;10.90;;;14.10;99.90;;;;;;4957663;28;95312;-36
2023/09/22 07:39:40;;;;;;;14.02;11.15;;;14.20;99.90;;;;;;4974550;28;95047;-36
2023/09/22 07:42:07;;;;;;;13.35;10.23;;;14.10;99.90;;;;;;4974121;28;94465;-35
2023/09/22 07:44:33;;;;;;;14.77;10.98;;;14.20;99.90;;;;;;4973463;28;93127;-35
2023/09/22 07:47:00;;;;;;;14.95;11.82;;;14.20;99.90;;;;;;4972924;28;95404;-35
2023/09/22 07:49:26;;;;;;;15.95;10.50;;;14.20;99.90;;;;;;4973292;28;96255;-35
2023/09/22 07:51:53;;;;;;;10.98;9.77;;;14.20;99.90;;;;;;4972835;28;93482;-37
2023/09/22 07:54:20;;;;;;;13.35;11.50;;;14.30;99.90;;;;;;4974660;28;92736;-35
2023/09/22 07:56:46;;;;;;;15.88;10.82;;;14.30;99.90;;;;;;4972338;28;95516;-34
2023/09/22 07:59:16;;;;;;;14.25;9.65;;;14.30;99.90;;;;;;4972240;28;94655;-35
2023/09/22 08:01:43;;;;;;;12.70;10.77;;;14.40;99.90;;;;;;4974671;28;94518;-35
2023/09/22 08:04:12;;;;;;;14.05;10.05;;;14.40;99.90;;;;;;4973002;28;91944;-38
2023/09/22 08:06:38;;;;;;;21.13;12.00;;;14.30;99.90;;;;;;4973710;28;95170;-33
2023/09/22 08:09:04;;;;;;;15.80;10.25;;;14.30;99.90;;;;;;4972659;28;94291;-35
2023/09/22 08:11:33;;;;;;;11.25;9.77;;;14.40;99.90;;;;;;4973189;28;96013;-33
2023/09/22 08:14:00;;;;;;;10.38;9.27;;;14.30;99.90;;;;;;4974412;28;92220;-39
2023/09/22 08:16:26;;;;;;;13.23;8.98;;;14.40;99.90;;;;;;4962213;28;94598;-33
2023/09/22 08:18:53;;;;;;;10.82;8.93;;;14.30;99.90;;;;;;4973039;28;95467;-37
2023/09/22 08:21:22;;;;;;;12.98;9.63;;;14.40;99.90;;;;;;4974861;28;94177;-36
2023/09/22 08:23:49;;;;;;;13.20;9.20;;;14.40;99.90;;;;;;4973051;28;94221;-35
2023/09/22 08:26:17;;;;;;;11.75;8.85;;;14.50;99.90;;;;;;4973884;28;95451;-36
2023/09/22 08:28:46;;;;;;;;;;;14.50;99.90;;;;;;4974864;28;94273;-37
2023/09/22 08:31:12;;;;;;;12.57;7.50;;;14.50;99.90;;;;;;4975868;28;94472;-36
2023/09/22 08:33:38;;;;;;;12.82;7.60;;;14.60;99.90;;;;;;4957893;28;92985;-35
2023/09/22 08:36:04;;;;;;;8.98;6.82;;;14.70;99.90;;;;;;4968334;28;95502;-36
2023/09/22 08:38:34;;;;;;;7.55;6.72;;;14.70;99.90;;;;;;4967524;28;96869;-33
2023/09/22 08:41:03;;;;;;;6.85;5.68;;;14.70;99.90;;;;;;4973765;28;93876;-35
2023/09/22 08:43:29;;;;;;;7.32;6.00;;;14.70;99.90;;;;;;4974084;28;94115;-36
2023/09/22 08:45:55;;;;;;;7.47;5.68;;;14.70;99.90;;;;;;4973236;28;94895;-36
2023/09/22 08:48:24;;;;;;;10.82;5.65;;;14.90;99.90;;;;;;4973238;28;96186;-35
2023/09/22 08:50:50;;;;;;;5.82;5.22;;;15.10;99.90;;;;;;4973701;28;92960;-32
2023/09/22 08:53:16;;;;;;;10.05;5.30;;;15.20;99.90;;;;;;4974449;28;93443;-34
2023/09/22 08:55:42;;;;;;;6.88;6.18;;;15.40;99.90;;;;;;4973181;28;92825;-33
2023/09/22 08:58:08;;;;;;;5.55;4.60;;;15.50;99.90;;;;;;4973703;28;93939;-34
2023/09/22 09:00:33;;;;;;;4.57;3.95;;;15.60;99.90;;;;;;4972774;28;95503;-39
2023/09/22 09:03:09;;;;;;;8.02;3.88;;;15.70;99.90;;;;;;4973692;28;93170;-34
2023/09/22 09:05:36;;;;;;;4.10;3.65;;;15.80;99.90;;;;;;4960937;28;94328;-37
2023/09/22 09:08:22;;;;;;;4.82;3.35;;;15.90;99.90;;;;;;4960051;28;94615;-35
2023/09/22 09:10:49;;;;;;;5.60;3.90;;;16.00;99.90;;;;;;4973003;28;93556;-37
2023/09/22 09:13:18;;;;;;;4.65;4.25;;;16.10;99.90;;;;;;4973378;28;92902;-33
2023/09/22 09:15:49;;;;;;;3.92;3.45;;;16.10;99.90;;;;;;4974100;28;95610;-35
2023/09/22 09:18:17;;;;;;;6.68;3.90;;;16.20;99.90;;;;;;4973365;28;94875;-34
2023/09/22 09:20:45;;;;;;;5.03;3.38;;;16.20;99.90;;;;;;4974152;28;93381;-36
2023/09/22 09:23:17;;;;;;;2.67;2.45;;;16.20;99.90;;;;;;4976165;28;93126;-36
2023/09/22 09:25:44;;;;;;;4.03;3.35;;;16.10;99.90;;;;;;4975297;28;96190;-34
2023/09/22 09:28:12;;;;;;;3.65;2.85;;;16.20;99.90;;;;;;4977176;28;95431;-37
2023/09/22 09:30:58;;;;;;;3.30;3.00;;;16.00;99.90;;;;;;4974164;28;94001;-33
2023/09/22 09:33:34;;;;;;;4.57;2.58;;;16.00;99.90;;;;;;4971872;28;93449;-36
2023/09/22 09:36:03;;;;;;;4.90;3.45;;;16.10;99.90;;;;;;4965585;28;93884;-36
2023/09/22 09:38:30;;;;;;;4.55;3.30;;;16.20;99.90;;;;;;4975807;28;94049;-36
2023/09/22 09:40:58;;;;;;;2.70;2.50;;;16.40;99.90;;;;;;4975684;28;94776;-36
2023/09/22 09:43:24;;;;;;;2.97;2.67;;;16.60;99.90;;;;;;4976450;28;93647;-35
2023/09/22 09:45:58;;;;;;;3.53;3.08;;;16.60;99.90;;;;;;4976285;28;93248;-35
2023/09/22 09:48:25;;;;;;;3.75;2.72;;;16.50;99.90;;;;;;4976188;28;94849;-33
2023/09/22 09:50:53;;;;;;;2.85;2.65;;;16.50;99.90;;;;;;4976027;28;94451;-34
2023/09/22 09:53:28;;;;;;;2.67;2.47;;;16.40;99.90;;;;;;4963697;28;94099;-32
2023/09/22 09:55:59;;;;;;;3.55;3.33;;;16.30;99.90;;;;;;4974563;28;95604;-35
2023/09/22 09:58:30;;;;;;;6.68;2.80;;;16.30;99.90;;;;;;4974383;28;94432;-37
2023/09/22 10:00:58;;;;;;;3.20;2.42;;;16.30;99.90;;;;;;4976006;28;94040;-35
2023/09/22 10:03:24;;;;;;;2.20;2.03;;;16.50;99.90;;;;;;4975318;28;93384;-37
2023/09/22 10:05:51;;;;;;;3.58;2.35;;;16.70;99.90;;;;;;4976022;28;94882;-35
2023/09/22 10:08:19;;;;;;;3.17;2.03;;;16.80;99.90;;;;;;4976609;28;93460;-33
2023/09/22 10:10:48;;;;;;;3.40;2.40;;;16.80;99.90;;;;;;4975546;28;93201;-34
2023/09/22 10:13:14;;;;;;;2.63;2.08;;;16.90;99.90;;;;;;4976293;28;92979;-34
2023/09/22 10:15:59;;;;;;;10.13;2.35;;;17.00;99.90;;;;;;4974904;28;95351;-38
2023/09/22 10:18:46;;;;;;;4.72;1.83;;;17.20;99.90;;;;;;4973622;28;94606;-33
2023/09/22 10:21:56;;;;;;;5.30;2.33;;;17.30;99.90;;;;;;4972413;28;92866;-35
2023/09/22 10:24:25;;;;;;;3.45;1.88;;;17.50;99.90;;;;;;4973879;28;93125;-37
2023/09/22 10:26:56;;;;;;;3.08;2.17;;;17.60;99.90;;;;;;4975403;28;95089;-37
2023/09/22 10:29:37;;;;;;;3.63;2.30;;;17.60;99.90;;;;;;4973934;28;93827;-34
2023/09/22 10:32:19;;;;;;;4.97;1.67;;;17.70;99.90;;;;;;4973755;28;94169;-37
2023/09/22 10:34:53;;;;;;;2.65;1.67;;;17.90;99.90;;;;;;4975637;28;93884;-35
2023/09/22 10:37:31;;;;;;;2.95;1.50;;;18.00;99.90;;;;;;4975831;28;94802;-33
2023/09/22 10:40:19;;;;;;;1.58;1.40;;;18.00;99.90;;;;;;4974756;28;94487;-35
2023/09/22 10:42:49;;;;;;;6.13;2.45;;;18.00;99.90;;;;;;4965162;28;94305;-34
2023/09/22 10:45:21;;;;;;;3.20;2.00;;;18.00;99.90;;;;;;4975349;28;93057;-33
2023/09/22 10:47:49;;;;;;;1.65;1.55;;;17.90;99.90;;;;;;4975137;28;94882;-37
2023/09/22 10:50:21;;;;;;;1.70;1.60;;;17.90;99.90;;;;;;4973241;28;93209;-33
2023/09/22 10:53:03;;;;;;;2.10;1.90;;;18.00;99.90;;;;;;4975154;28;93373;-33
2023/09/22 10:55:34;;;;;;;2.92;2.03;;;17.90;99.90;;;;;;4957611;28;94546;-35
2023/09/22 10:58:02;;;;;;;2.17;1.42;;;17.60;99.90;;;;;;4956479;28;93523;-35
2023/09/22 11:00:27;;;;;;;1.87;1.77;;;17.40;99.90;;;;;;4971191;28;93715;-35
2023/09/22 11:02:54;;;;;;;4.22;2.17;;;17.30;99.90;;;;;;4975402;28;92894;-34
2023/09/22 11:05:20;;;;;;;4.35;2.13;;;17.30;99.90;;;;;;4974786;28;93856;-32
2023/09/22 11:07:47;;;;;;;3.00;1.88;;;17.30;99.90;;;;;;4974783;28;95933;-35
2023/09/22 11:10:21;;;;;;;1.98;1.77;;;17.20;99.90;;;;;;4973577;28;93541;-34
2023/09/22 11:12:49;;;;;;;3.65;1.98;;;17.10;99.90;;;;;;4974784;28;93098;-36
2023/09/22 11:15:14;;;;;;;2.07;1.63;;;17.20;99.90;;;;;;4974269;28;95109;-34
2023/09/22 11:17:47;;;;;;;1.80;1.70;;;17.30;99.90;;;;;;4959925;28;94219;-34
2023/09/22 11:20:18;;;;;;;1.90;1.48;;;17.40;99.90;;;;;;4974719;28;94300;-36
2023/09/22 11:22:45;;;;;;;6.53;1.55;;;17.40;99.90;;;;;;4974554;28;93465;-36
2023/09/22 11:25:11;;;;;;;1.48;1.10;;;17.60;99.90;;;;;;4975004;28;92421;-34
2023/09/22 11:27:45;;;;;;;2.03;1.35;;;17.70;99.90;;;;;;4968986;28;94831;-37
2023/09/22 11:30:16;;;;;;;1.00;0.90;;;17.90;99.90;;;;;;4967863;28;94419;-35
2023/09/22 11:32:43;;;;;;;1.55;1.42;;;18.00;99.90;;;;;;4961029;28;94728;-33
2023/09/22 11:35:10;;;;;;;1.60;0.82;;;18.10;99.90;;;;;;4973977;28;92840;-36
2023/09/22 11:37:36;;;;;;;2.17;1.70;;;18.10;99.90;;;;;;4974488;28;94289;-35
2023/09/22 11:40:13;;;;;;;2.20;1.48;;;18.20;99.90;;;;;;4971920;28;94193;-34
2023/09/22 11:42:44;;;;;;;1.25;1.15;;;18.10;99.90;;;;;;4975606;28;94459;-36
2023/09/22 11:45:10;;;;;;;2.00;1.40;;;18.00;99.90;;;;;;4972541;28;93723;-35
2023/09/22 11:47:36;;;;;;;2.60;1.38;;;17.90;99.90;;;;;;4974133;28;95148;-35
2023/09/22 11:50:03;;;;;;;1.48;1.38;;;17.60;99.90;;;;;;4974182;28;94488;-35
2023/09/22 11:52:31;;;;;;;1.20;1.10;;;17.70;99.90;;;;;;4974236;28;94571;-32
2023/09/22 11:54:57;;;;;;;2.30;1.60;;;17.60;99.90;;;;;;4973565;28;93627;-35
2023/09/22 11:57:23;;;;;;;1.55;1.38;;;17.60;99.90;;;;;;4974401;28;93885;-32
2023/09/22 11:59:57;;;;;;;1.75;1.60;;;17.60;99.90;;;;;;4973900;28;95386;-33
2023/09/22 12:02:23;;;;;;;1.60;0.95;;;17.60;99.90;;;;;;4973868;28;92989;-36
2023/09/22 12:04:48;;;;;;;1.73;1.02;;;17.40;99.90;;;;;;4974230;28;93124;-34
2023/09/22 12:07:14;;;;;;;1.25;1.00;;;17.40;99.90;;;;;;4973954;28;94680;-32
2023/09/22 12:09:40;;;;;;;2.40;1.15;;;17.50;99.90;;;;;;4972924;28;94863;-35
2023/09/22 12:12:05;;;;;;;1.52;1.42;;;17.40;99.90;;;;;;4974116;28;93620;-37
2023/09/22 12:14:31;;;;;;;1.80;1.70;;;17.50;99.90;;;;;;4974389;28;93297;-34
2023/09/22 12:16:57;;;;;;;5.32;1.80;;;17.40;99.90;;;;;;4973485;28;93427;-35
2023/09/22 12:19:25;;;;;;;1.30;1.08;;;17.40;99.90;;;;;;4974124;28;95539;-34
2023/09/22 12:21:50;;;;;;;2.70;1.30;;;17.40;99.90;;;;;;4974725;28;94260;-35
2023/09/22 12:24:16;;;;;;;1.45;1.13;;;17.50;99.90;;;;;;4973465;28;93732;-35
2023/09/22 12:26:42;;;;;;;1.15;1.10;;;17.40;99.90;;;;;;4973919;28;93399;-32
2023/09/22 12:29:08;;;;;;;3.33;1.60;;;17.30;99.90;;;;;;4974019;28;95612;-34
2023/09/22 12:31:36;;;;;;;1.10;1.00;;;17.30;99.90;;;;;;4974201;28;93284;-34
2023/09/22 12:34:01;;;;;;;3.77;1.37;;;17.30;99.90;;;;;;4973792;28;92644;-32
2023/09/22 12:36:27;;;;;;;2.05;1.13;;;17.20;99.90;;;;;;4973712;28;94862;-34